Impacts TAF Board INFO
FOR SITUATIONAL AWARENESS. NOT TO BE USED FOR FLIGHT PLANNING PURPOSES.
IDs:

KJFK - New York/Kennedy Int, NY, US

Issued at 1740 UTC 25 Feb 2018
Updated at 1946 UTC 25 Feb 2018
Potential Impact None Slight Moderate High
Time<<26/08Z 26/09Z 26/10Z 26/11Z 26/12Z 26/13Z 26/14Z 26/15Z 26/16Z 26/17Z 26/18Z 26/19Z 26/20Z>>
Type PRVL PRVL PRVL PRVL PRVL PRVL PRVL PRVL PRVL PRVL PRVL PRVL PRVL
VIS >6 >6 >6 >6 >6 >6 >6 >6 >6 >6 >6 >6 >6
CIG 150 150 150 150 200 200 200 200 200 -- -- -- --
Cover BKN BKN BKN BKN BKN BKN BKN BKN BKN FEW FEW FEW FEW
FltCat VFR VFR VFR VFR VFR VFR VFR VFR VFR VFR VFR VFR VFR
WX -- -- -- -- -- -- -- -- -- -- -- -- --
WDir 310 310 310 310 330 330 330 330 330 290 290 280 280
WSpd 5 5 5 5 7 7 7 7 7 10 10 10 10
WGst -- -- -- -- -- -- -- -- -- -- -- 18 18

Raw TAF
KJFK 251740Z 2518/2624 08010KT 3SM -RA BR OVC007
  FM252000 03005KT 1 1/2SM BR VCSH OVC009
  FM252100 VRB03KT 1SM BR OVC010
  FM260000 VRB03KT 1SM BR OVC090
  FM260400 30003KT 3SM BR OVC100
  FM260700 31005KT P6SM BKN150
  FM261200 33007KT P6SM BKN200
  FM261700 29010KT P6SM FEW250
  FM261900 28010G18KT P6SM FEW250


METAR Board
Radar Display
Forecast Discussion

FOR SITUATIONAL AWARENESS. NOT TO BE USED FOR FLIGHT PLANNING PURPOSES.